Time;durP1;ratioP1;P1;durP2;ratioP2;P2;SDS_P1;SDS_P2;PMS_P1;PMS_P2;Temp;Humidity;BMP_temperature;BMP_pressure;BME280_temperature;BME280_humidity;BME280_pressure;Samples;Min_cycle;Max_cycle;Signal;HPM_P1;HPM_P2
2021/06/26 00:01:10;;;;;;;11.80;8.47;;;17.10;99.90;;;;;;4954248;28;20418;-51
2021/06/26 00:03:36;;;;;;;9.57;8.68;;;17.10;99.90;;;;;;4951228;28;20184;-51
2021/06/26 00:06:02;;;;;;;9.60;8.80;;;17.00;99.90;;;;;;4946999;28;20222;-51
2021/06/26 00:08:27;;;;;;;9.90;8.90;;;17.00;99.90;;;;;;4945729;28;20221;-51
2021/06/26 00:10:55;;;;;;;8.70;8.00;;;16.50;99.90;;;;;;4951903;28;20200;-52
2021/06/26 00:13:21;;;;;;;9.13;8.32;;;16.90;99.90;;;;;;4959005;28;20507;-51
2021/06/26 00:15:47;;;;;;;9.85;8.77;;;17.10;99.90;;;;;;4952849;28;20657;-51
2021/06/26 00:18:13;;;;;;;9.57;8.73;;;17.00;99.90;;;;;;4952941;28;20231;-51
2021/06/26 00:20:42;;;;;;;10.48;9.48;;;17.00;99.90;;;;;;4943208;28;20655;-51
2021/06/26 00:23:09;;;;;;;10.60;9.45;;;17.20;99.90;;;;;;4945604;28;20193;-51
2021/06/26 00:25:35;;;;;;;10.48;9.48;;;16.90;99.90;;;;;;4964915;28;20850;-51
2021/06/26 00:28:00;;;;;;;10.43;9.53;;;17.00;99.90;;;;;;4963129;28;20214;-51
2021/06/26 00:30:26;;;;;;;9.40;8.60;;;17.10;99.90;;;;;;4955588;28;20532;-52
2021/06/26 00:32:52;;;;;;;9.60;8.70;;;17.00;99.90;;;;;;4952294;28;20208;-52
2021/06/26 00:35:18;;;;;;;9.43;7.90;;;17.10;99.90;;;;;;4948680;28;20443;-50
2021/06/26 00:37:43;;;;;;;9.80;8.90;;;17.30;99.90;;;;;;4973238;28;20559;-53
2021/06/26 00:40:10;;;;;;;10.57;8.40;;;17.00;99.90;;;;;;4955402;28;20197;-53
2021/06/26 00:42:39;;;;;;;9.57;8.55;;;17.00;99.90;;;;;;4956483;28;20505;-53
2021/06/26 00:45:10;;;;;;;11.05;8.93;;;16.70;99.90;;;;;;4951162;28;20192;-53
2021/06/26 00:47:36;;;;;;;10.40;8.63;;;17.00;99.90;;;;;;4945554;28;20223;-53
2021/06/26 00:50:14;;;;;;;11.15;9.63;;;16.90;99.90;;;;;;4951368;28;20207;-52
2021/06/26 00:52:40;;;;;;;9.07;8.10;;;17.30;99.90;;;;;;4942488;28;20302;-52
2021/06/26 00:55:06;;;;;;;9.03;8.13;;;17.20;99.90;;;;;;4971994;28;20278;-52
2021/06/26 00:57:33;;;;;;;8.32;7.60;;;17.00;99.90;;;;;;4948785;28;20689;-53
2021/06/26 01:00:04;;;;;;;8.88;8.07;;;17.00;99.90;;;;;;4946623;28;20604;-53
2021/06/26 01:02:30;;;;;;;9.35;8.40;;;17.10;99.90;;;;;;4972397;28;20602;-53
2021/06/26 01:04:55;;;;;;;8.83;8.13;;;17.40;99.90;;;;;;4947922;28;20232;-53
2021/06/26 01:07:21;;;;;;;9.47;8.67;;;17.40;99.90;;;;;;4948423;28;20544;-53
2021/06/26 01:09:47;;;;;;;10.60;9.60;;;17.10;99.90;;;;;;4942809;28;20191;-52
2021/06/26 01:12:12;;;;;;;9.00;8.20;;;17.00;99.90;;;;;;4948946;28;20622;-53
2021/06/26 01:14:39;;;;;;;10.07;9.03;;;17.00;99.90;;;;;;4971118;28;20197;-53
2021/06/26 01:17:07;;;;;;;8.82;8.13;;;17.00;99.90;;;;;;4944265;28;20193;-52
2021/06/26 01:19:33;;;;;;;8.05;7.35;;;17.20;99.90;;;;;;4947881;28;20680;-53
2021/06/26 01:22:02;;;;;;;8.73;7.95;;;16.80;99.90;;;;;;4947853;28;20202;-52
2021/06/26 01:24:27;;;;;;;8.63;7.82;;;17.10;99.90;;;;;;4940505;28;20211;-53
2021/06/26 01:26:57;;;;;;;9.07;8.17;;;16.70;99.90;;;;;;4949772;28;20191;-53
2021/06/26 01:29:24;;;;;;;10.35;9.35;;;16.90;99.90;;;;;;4960593;28;20650;-53
2021/06/26 01:31:49;;;;;;;9.63;8.68;;;17.00;99.90;;;;;;4946869;28;20271;-53
2021/06/26 01:34:15;;;;;;;9.43;8.53;;;16.80;99.90;;;;;;4944547;28;20312;-52
2021/06/26 01:36:41;;;;;;;7.93;7.23;;;17.10;99.90;;;;;;4953311;28;20188;-53
2021/06/26 01:39:06;;;;;;;8.80;7.90;;;16.90;99.90;;;;;;4949073;28;20220;-53
2021/06/26 01:41:32;;;;;;;9.50;8.50;;;16.90;99.90;;;;;;4946565;28;20643;-53
2021/06/26 01:43:58;;;;;;;8.73;7.93;;;16.90;99.90;;;;;;4946012;29;20197;-53
2021/06/26 01:46:24;;;;;;;10.10;8.25;;;16.90;99.90;;;;;;4947355;29;20216;-53
2021/06/26 01:48:50;;;;;;;9.53;8.63;;;16.90;99.90;;;;;;4969791;28;20685;-53
2021/06/26 01:51:15;;;;;;;10.67;9.57;;;16.90;99.90;;;;;;4954721;28;20196;-53
2021/06/26 01:53:44;;;;;;;10.60;8.93;;;16.70;99.90;;;;;;4963229;28;20243;-53
2021/06/26 01:56:13;;;;;;;8.77;7.97;;;17.00;99.90;;;;;;4941222;28;20185;-53
2021/06/26 01:58:39;;;;;;;9.45;8.65;;;16.80;99.90;;;;;;4952560;28;20211;-53
2021/06/26 02:01:04;;;;;;;10.00;9.00;;;17.10;99.90;;;;;;4942449;28;20185;-53
2021/06/26 02:03:30;;;;;;;10.17;9.17;;;16.90;99.90;;;;;;4969112;28;20201;-53
2021/06/26 02:05:56;;;;;;;10.97;9.00;;;17.10;99.90;;;;;;4950971;28;20564;-53
2021/06/26 02:08:22;;;;;;;9.47;8.67;;;17.00;99.90;;;;;;4944030;28;20244;-53
2021/06/26 02:10:47;;;;;;;9.50;8.60;;;17.10;99.90;;;;;;4947148;28;20198;-53
2021/06/26 02:13:13;;;;;;;9.23;8.37;;;16.70;99.90;;;;;;4954468;28;20261;-53
2021/06/26 02:15:38;;;;;;;9.53;8.63;;;17.10;99.90;;;;;;4957176;28;20202;-53
2021/06/26 02:18:04;;;;;;;8.70;7.80;;;17.00;99.90;;;;;;4949163;28;20238;-53
2021/06/26 02:20:30;;;;;;;10.13;8.63;;;16.90;99.90;;;;;;4969221;28;20188;-53
2021/06/26 02:22:55;;;;;;;9.90;8.90;;;16.90;99.90;;;;;;4948514;28;20312;-53
2021/06/26 02:25:21;;;;;;;9.33;8.43;;;17.10;99.90;;;;;;4947186;28;20228;-53
2021/06/26 02:27:47;;;;;;;11.83;8.70;;;17.00;99.90;;;;;;4941088;28;20235;-53
2021/06/26 02:30:13;;;;;;;8.73;7.93;;;17.00;99.90;;;;;;4951310;28;20187;-52
2021/06/26 02:32:39;;;;;;;9.23;8.43;;;17.00;99.90;;;;;;4966967;28;20208;-53
2021/06/26 02:35:06;;;;;;;9.35;8.15;;;16.80;99.90;;;;;;4953092;28;20188;-53
2021/06/26 02:37:32;;;;;;;10.23;9.30;;;16.90;99.90;;;;;;4951340;28;20239;-53
2021/06/26 02:39:58;;;;;;;8.83;8.03;;;16.80;99.90;;;;;;4947966;28;20623;-53
2021/06/26 02:42:23;;;;;;;10.23;9.03;;;17.00;99.90;;;;;;4953834;28;20441;-53
2021/06/26 02:44:49;;;;;;;8.77;8.07;;;17.10;99.90;;;;;;4951221;28;20191;-53
2021/06/26 02:47:14;;;;;;;10.90;8.17;;;17.10;99.90;;;;;;4944862;28;20208;-53
2021/06/26 02:49:40;;;;;;;9.83;8.83;;;17.00;99.90;;;;;;4953627;28;20220;-53
2021/06/26 02:52:06;;;;;;;9.23;8.33;;;17.00;99.90;;;;;;4948393;28;20722;-53
2021/06/26 02:54:33;;;;;;;9.40;8.40;;;17.00;99.90;;;;;;4950999;28;20188;-52
2021/06/26 02:56:58;;;;;;;8.90;8.10;;;16.80;99.90;;;;;;4946013;28;20181;-53
2021/06/26 02:59:24;;;;;;;8.60;7.80;;;17.00;99.90;;;;;;4964056;28;20202;-53
2021/06/26 03:01:49;;;;;;;9.63;8.63;;;16.80;99.90;;;;;;4947272;28;20564;-53
2021/06/26 03:04:15;;;;;;;9.17;8.27;;;16.80;99.90;;;;;;4948236;28;20258;-53
2021/06/26 03:06:41;;;;;;;9.20;8.40;;;16.80;99.90;;;;;;4952131;28;20193;-54
2021/06/26 03:09:06;;;;;;;10.33;9.27;;;16.80;99.90;;;;;;4950512;28;20209;-53
2021/06/26 03:11:32;;;;;;;9.47;8.67;;;16.60;99.90;;;;;;4943094;28;20184;-53
2021/06/26 03:13:57;;;;;;;9.23;8.17;;;16.30;99.90;;;;;;4954319;28;20214;-52
2021/06/26 03:16:23;;;;;;;10.03;9.13;;;16.70;99.90;;;;;;4949672;28;20230;-53
2021/06/26 03:18:49;;;;;;;9.67;8.67;;;16.70;99.90;;;;;;4962670;28;20338;-53
2021/06/26 03:21:14;;;;;;;11.23;10.20;;;16.70;99.90;;;;;;4946270;28;20639;-53
2021/06/26 03:23:40;;;;;;;9.40;8.50;;;16.60;99.90;;;;;;4950439;28;20196;-53
2021/06/26 03:26:07;;;;;;;10.48;8.93;;;16.70;99.90;;;;;;4951810;28;20184;-53
2021/06/26 03:28:33;;;;;;;10.88;9.77;;;16.30;99.90;;;;;;4950509;28;20211;-53
2021/06/26 03:31:00;;;;;;;9.65;8.75;;;16.10;99.90;;;;;;4947644;29;20185;-53
2021/06/26 03:33:26;;;;;;;10.25;9.15;;;16.40;99.90;;;;;;4943616;28;20595;-52
2021/06/26 03:35:52;;;;;;;11.15;9.63;;;16.50;99.90;;;;;;4950362;28;20600;-52
2021/06/26 03:38:17;;;;;;;9.30;8.50;;;16.60;99.90;;;;;;4947371;28;20209;-52
2021/06/26 03:40:43;;;;;;;11.23;10.03;;;16.60;99.90;;;;;;4937649;28;20192;-53
2021/06/26 03:43:08;;;;;;;10.30;9.30;;;16.50;99.90;;;;;;4949121;29;20189;-52
2021/06/26 03:45:34;;;;;;;12.00;9.57;;;16.60;99.90;;;;;;4947348;28;20260;-53
2021/06/26 03:47:59;;;;;;;10.67;9.67;;;16.50;99.90;;;;;;4945894;28;20261;-53
2021/06/26 03:50:25;;;;;;;10.90;9.50;;;16.60;99.90;;;;;;4948960;28;20560;-53
2021/06/26 03:52:51;;;;;;;10.17;9.30;;;16.10;99.90;;;;;;4952944;28;20217;-53
2021/06/26 03:55:16;;;;;;;14.70;10.60;;;16.20;99.90;;;;;;4967185;28;20195;-53
2021/06/26 03:57:45;;;;;;;10.20;9.20;;;16.20;99.90;;;;;;4948745;28;20204;-53
2021/06/26 04:00:11;;;;;;;10.57;9.60;;;16.40;99.90;;;;;;4952558;28;20202;-53
2021/06/26 04:02:37;;;;;;;10.35;8.63;;;16.10;99.90;;;;;;4944066;28;20209;-53
2021/06/26 04:05:04;;;;;;;13.60;11.70;;;16.10;99.90;;;;;;4952922;28;20234;-53
2021/06/26 04:07:29;;;;;;;10.70;9.70;;;16.00;99.90;;;;;;4946647;28;20208;-53
2021/06/26 04:09:55;;;;;;;10.07;9.17;;;16.30;99.90;;;;;;4954156;28;20677;-53
2021/06/26 04:12:20;;;;;;;11.27;10.27;;;16.00;99.90;;;;;;4947425;29;20211;-53
2021/06/26 04:14:46;;;;;;;11.93;10.10;;;16.00;99.90;;;;;;4949568;28;20181;-52
2021/06/26 04:17:12;;;;;;;9.63;8.70;;;16.30;99.90;;;;;;4945452;28;20204;-53
2021/06/26 04:19:37;;;;;;;10.70;9.77;;;16.40;99.90;;;;;;4961335;28;20243;-53
2021/06/26 04:22:03;;;;;;;12.30;10.47;;;16.20;99.90;;;;;;4955981;28;20250;-53
2021/06/26 04:24:29;;;;;;;10.40;8.70;;;15.90;99.90;;;;;;4955538;28;20193;-53
2021/06/26 04:26:54;;;;;;;11.10;9.70;;;16.20;99.90;;;;;;4939939;28;20510;-53
2021/06/26 04:29:20;;;;;;;11.83;10.17;;;16.40;99.90;;;;;;4951723;28;20709;-53
2021/06/26 04:31:46;;;;;;;11.00;9.83;;;16.10;99.90;;;;;;4949589;28;20193;-53
2021/06/26 04:34:11;;;;;;;9.93;8.90;;;16.40;99.90;;;;;;4951505;28;20213;-53
2021/06/26 04:36:37;;;;;;;10.83;9.83;;;16.30;99.90;;;;;;4952581;28;20231;-54
2021/06/26 04:39:07;;;;;;;11.47;10.30;;;16.50;99.90;;;;;;4953638;28;20685;-53
2021/06/26 04:41:34;;;;;;;11.05;9.95;;;16.40;99.90;;;;;;4950422;28;20588;-53
2021/06/26 04:43:59;;;;;;;10.35;9.45;;;16.40;99.90;;;;;;4953786;28;20196;-53
2021/06/26 04:46:25;;;;;;;11.17;10.17;;;16.30;99.90;;;;;;4954869;28;20661;-53
2021/06/26 04:48:51;;;;;;;10.90;9.80;;;16.60;99.90;;;;;;4956930;28;20264;-52
2021/06/26 04:51:18;;;;;;;13.67;10.20;;;16.60;99.90;;;;;;4946234;28;20189;-52
2021/06/26 04:53:44;;;;;;;11.30;10.10;;;16.40;99.90;;;;;;4953757;28;20463;-52
2021/06/26 04:56:10;;;;;;;10.67;9.57;;;17.00;99.90;;;;;;4965590;28;20577;-52
2021/06/26 04:58:36;;;;;;;11.02;10.02;;;17.00;99.90;;;;;;4946884;29;20460;-52
2021/06/26 05:01:02;;;;;;;10.73;9.50;;;17.40;99.90;;;;;;4948345;28;20197;-52
2021/06/26 05:03:28;;;;;;;10.30;9.23;;;17.20;99.90;;;;;;4955308;28;20200;-52
2021/06/26 05:05:53;;;;;;;10.60;9.70;;;17.30;99.90;;;;;;4951538;28;20208;-53
2021/06/26 05:08:19;;;;;;;10.60;9.47;;;17.20;99.90;;;;;;4940618;28;20204;-52
2021/06/26 05:10:45;;;;;;;10.55;9.15;;;17.30;99.90;;;;;;4968167;28;20657;-53
2021/06/26 05:13:11;;;;;;;11.40;10.20;;;17.40;99.90;;;;;;4947499;28;20286;-53
2021/06/26 05:15:37;;;;;;;10.93;10.03;;;17.40;99.90;;;;;;4949789;28;20231;-50
2021/06/26 05:18:03;;;;;;;12.20;11.00;;;17.50;99.90;;;;;;4946939;28;20296;-51
2021/06/26 05:20:29;;;;;;;11.85;10.70;;;17.60;99.90;;;;;;4943058;28;20471;-51
2021/06/26 05:22:55;;;;;;;16.17;10.43;;;17.70;99.90;;;;;;4940735;28;20224;-51
2021/06/26 05:25:21;;;;;;;12.33;10.90;;;17.80;99.90;;;;;;4958049;28;20455;-50
2021/06/26 05:27:46;;;;;;;13.87;12.40;;;17.80;99.90;;;;;;4964458;28;20983;-50
2021/06/26 05:30:13;;;;;;;13.60;10.93;;;18.00;99.90;;;;;;4946016;28;20546;-51
2021/06/26 05:32:39;;;;;;;13.70;11.15;;;18.20;99.90;;;;;;4964822;28;20207;-51
2021/06/26 05:35:05;;;;;;;11.60;10.50;;;18.30;99.90;;;;;;4949667;28;20192;-51
2021/06/26 05:37:31;;;;;;;14.80;12.02;;;18.40;99.90;;;;;;4948701;28;20656;-50
2021/06/26 05:39:57;;;;;;;13.23;11.47;;;18.50;99.90;;;;;;4967062;28;20210;-51
2021/06/26 05:42:22;;;;;;;15.53;12.37;;;18.70;99.90;;;;;;4944818;28;20189;-51
2021/06/26 05:44:48;;;;;;;12.70;11.50;;;18.80;99.90;;;;;;4948352;28;20197;-50
2021/06/26 05:47:15;;;;;;;13.47;12.17;;;18.90;99.90;;;;;;4948894;28;20501;-51
2021/06/26 05:49:40;;;;;;;14.43;12.07;;;19.10;99.90;;;;;;4947868;28;20280;-51
2021/06/26 05:52:06;;;;;;;13.63;12.23;;;19.10;99.90;;;;;;4943465;28;20284;-51
2021/06/26 05:54:32;;;;;;;15.10;13.50;;;19.20;99.90;;;;;;4948695;28;20195;-51
2021/06/26 05:56:58;;;;;;;13.90;12.50;;;19.30;99.90;;;;;;4966046;28;20445;-50
2021/06/26 05:59:24;;;;;;;14.10;12.60;;;19.40;99.90;;;;;;4945945;28;20192;-51
2021/06/26 06:01:49;;;;;;;13.77;12.40;;;19.60;99.90;;;;;;4949263;28;20198;-51
2021/06/26 06:04:18;;;;;;;14.30;12.80;;;19.90;99.90;;;;;;4948642;29;20612;-51
2021/06/26 06:06:44;;;;;;;14.57;13.15;;;20.10;99.90;;;;;;4943084;29;20193;-50
2021/06/26 06:09:09;;;;;;;14.40;13.00;;;19.90;99.90;;;;;;4941378;28;20212;-51
2021/06/26 06:11:35;;;;;;;15.00;13.47;;;19.80;99.90;;;;;;4948178;28;20617;-51
2021/06/26 06:14:01;;;;;;;15.47;13.87;;;19.80;99.90;;;;;;4950344;28;20212;-51
2021/06/26 06:16:27;;;;;;;15.95;14.35;;;20.00;99.90;;;;;;4948509;28;20283;-51
2021/06/26 06:18:52;;;;;;;15.33;13.73;;;20.00;99.90;;;;;;4944442;28;20310;-50
2021/06/26 06:21:19;;;;;;;16.33;14.63;;;20.30;99.90;;;;;;4964068;28;20661;-51
2021/06/26 06:23:45;;;;;;;16.13;13.38;;;20.30;99.90;;;;;;4944011;28;20195;-52
2021/06/26 06:26:11;;;;;;;16.35;13.60;;;20.50;99.90;;;;;;4947221;28;20191;-51
2021/06/26 06:28:37;;;;;;;15.70;12.90;;;20.60;99.90;;;;;;4965551;28;20536;-51
2021/06/26 06:31:03;;;;;;;15.27;13.77;;;20.90;99.90;;;;;;4947352;28;20505;-51
2021/06/26 06:33:29;;;;;;;16.33;14.05;;;21.30;99.90;;;;;;4948055;28;20228;-51
2021/06/26 06:35:55;;;;;;;14.75;13.27;;;21.30;99.90;;;;;;4944944;28;20619;-51
2021/06/26 06:38:21;;;;;;;14.60;13.20;;;21.40;99.90;;;;;;4945603;28;20239;-51
2021/06/26 06:40:46;;;;;;;16.27;14.67;;;21.40;99.90;;;;;;4945940;28;20696;-51
2021/06/26 06:43:12;;;;;;;16.23;14.63;;;21.30;99.90;;;;;;4944740;28;20242;-51
2021/06/26 06:45:38;;;;;;;14.90;13.50;;;21.70;99.90;;;;;;4947516;28;20184;-52
2021/06/26 06:48:04;;;;;;;15.83;14.33;;;21.90;99.90;;;;;;4949755;28;20217;-51
2021/06/26 06:50:30;;;;;;;15.65;13.98;;;22.10;99.90;;;;;;4944107;28;20196;-52
2021/06/26 06:52:59;;;;;;;15.60;14.00;;;22.40;99.90;;;;;;4941069;28;20208;-51
2021/06/26 06:55:25;;;;;;;18.40;15.57;;;22.60;99.90;;;;;;4945757;28;20650;-51
2021/06/26 06:57:50;;;;;;;14.50;12.50;;;22.50;99.90;;;;;;4940154;28;20215;-51
2021/06/26 07:00:16;;;;;;;20.60;15.00;;;22.60;99.90;;;;;;4945420;28;20188;-51
2021/06/26 07:02:42;;;;;;;14.57;12.57;;;22.70;99.90;;;;;;4941476;28;20289;-51
2021/06/26 07:05:08;;;;;;;14.77;13.37;;;23.10;99.90;;;;;;4944950;28;20254;-51
2021/06/26 07:07:34;;;;;;;16.07;14.50;;;23.20;99.90;;;;;;4945946;28;20597;-51
2021/06/26 07:10:00;;;;;;;12.90;11.80;;;24.50;99.90;;;;;;4946489;28;20500;-51
2021/06/26 07:12:25;;;;;;;12.40;11.30;;;26.80;95.10;;;;;;4946621;28;20207;-51
2021/06/26 07:14:51;;;;;;;13.33;12.10;;;28.80;91.30;;;;;;4965824;28;20774;-51
2021/06/26 07:17:17;;;;;;;12.70;11.57;;;29.30;84.80;;;;;;4950379;28;20216;-52
2021/06/26 07:19:42;;;;;;;12.13;11.10;;;30.90;80.40;;;;;;4944165;28;20202;-52
2021/06/26 07:22:08;;;;;;;12.73;11.63;;;32.40;75.60;;;;;;4943545;28;20192;-52
2021/06/26 07:24:33;;;;;;;12.40;11.10;;;33.20;69.50;;;;;;4942919;28;20274;-52
2021/06/26 07:26:59;;;;;;;13.03;11.87;;;34.50;64.10;;;;;;4940027;28;20195;-52
2021/06/26 07:29:25;;;;;;;12.00;11.00;;;35.70;59.70;;;;;;4946873;28;20681;-50
2021/06/26 07:31:50;;;;;;;11.73;10.80;;;36.80;56.60;;;;;;4945073;28;20611;-50
2021/06/26 07:34:16;;;;;;;11.80;10.27;;;36.00;54.90;;;;;;4946621;28;20239;-50
2021/06/26 07:36:42;;;;;;;10.63;9.83;;;35.00;57.40;;;;;;4944351;28;20189;-50
2021/06/26 07:39:08;;;;;;;10.70;9.90;;;36.00;55.10;;;;;;4944535;28;20685;-51
2021/06/26 07:41:33;;;;;;;10.87;10.07;;;36.30;53.00;;;;;;4947030;28;20192;-50
2021/06/26 07:43:59;;;;;;;11.90;10.93;;;36.70;52.00;;;;;;4946840;28;20279;-50
2021/06/26 07:46:25;;;;;;;11.30;10.30;;;34.50;53.70;;;;;;4943557;28;20202;-50
2021/06/26 07:48:52;;;;;;;10.03;9.13;;;34.00;56.00;;;;;;4947189;28;20226;-50
2021/06/26 07:51:18;;;;;;;10.70;9.90;;;35.20;54.40;;;;;;4945525;28;20524;-50
2021/06/26 07:53:44;;;;;;;10.63;9.73;;;35.30;53.00;;;;;;4944443;28;20205;-51
2021/06/26 07:56:09;;;;;;;12.53;11.53;;;36.00;51.40;;;;;;4944454;28;20564;-51
2021/06/26 07:58:36;;;;;;;11.17;10.27;;;35.10;51.10;;;;;;4946530;28;20462;-51
2021/06/26 08:01:02;;;;;;;11.40;10.50;;;36.40;51.10;;;;;;4946201;28;20189;-51
2021/06/26 08:03:27;;;;;;;12.10;11.20;;;36.70;49.70;;;;;;4968422;28;21030;-51
2021/06/26 08:05:54;;;;;;;11.03;10.23;;;35.30;51.70;;;;;;4943975;28;20459;-52
2021/06/26 08:08:20;;;;;;;14.50;13.33;;;36.30;51.00;;;;;;4949126;28;20204;-51
2021/06/26 08:10:46;;;;;;;11.93;11.10;;;36.90;49.30;;;;;;4947947;28;20928;-51
2021/06/26 08:13:14;;;;;;;13.83;12.73;;;35.00;50.40;;;;;;4948112;28;20467;-51
2021/06/26 08:15:44;;;;;;;10.20;9.40;;;34.50;52.50;;;;;;4964706;28;20211;-51
2021/06/26 08:18:10;;;;;;;11.00;10.10;;;33.60;53.80;;;;;;4964658;28;20460;-49
2021/06/26 08:20:37;;;;;;;8.30;7.70;;;32.40;55.40;;;;;;4948419;28;20228;-52
2021/06/26 08:23:03;;;;;;;8.43;7.83;;;32.80;54.70;;;;;;4949786;28;20853;-52
2021/06/26 08:25:31;;;;;;;17.93;16.43;;;33.50;53.20;;;;;;4951463;28;21007;-51
2021/06/26 08:27:56;;;;;;;10.07;9.27;;;32.90;53.60;;;;;;4966907;28;20459;-51
2021/06/26 08:30:23;;;;;;;9.10;8.40;;;32.00;56.20;;;;;;4954033;28;20441;-51
2021/06/26 08:32:50;;;;;;;9.40;8.70;;;32.10;55.10;;;;;;4954321;28;20206;-51
2021/06/26 08:35:16;;;;;;;8.27;7.67;;;31.60;56.00;;;;;;4948183;28;20447;-51
2021/06/26 08:37:47;;;;;;;9.53;8.83;;;32.30;54.50;;;;;;4947797;28;20465;-51
2021/06/26 08:40:14;;;;;;;10.07;9.17;;;31.70;55.10;;;;;;4946244;28;20454;-51
2021/06/26 08:42:40;;;;;;;9.20;8.50;;;31.80;56.10;;;;;;4950005;28;20492;-51
2021/06/26 08:45:09;;;;;;;8.80;8.13;;;32.60;53.70;;;;;;4947652;28;20469;-52
2021/06/26 08:47:35;;;;;;;8.23;7.53;;;32.80;53.90;;;;;;4948734;28;20298;-52
2021/06/26 08:50:00;;;;;;;6.70;6.20;;;32.80;52.90;;;;;;4946208;28;20534;-51
2021/06/26 08:52:26;;;;;;;7.67;7.17;;;32.60;53.30;;;;;;4948295;28;20203;-52
2021/06/26 08:54:53;;;;;;;7.23;6.70;;;33.70;51.90;;;;;;4946346;28;20189;-52
2021/06/26 08:57:37;;;;;;;8.00;7.30;;;34.60;50.00;;;;;;4947248;28;20454;-52
2021/06/26 09:00:26;;;;;;;7.87;7.27;;;34.70;50.50;;;;;;4959373;28;20488;-52
2021/06/26 09:03:03;;;;;;;8.60;8.00;;;33.30;50.70;;;;;;4944450;28;20475;-51
2021/06/26 09:05:30;;;;;;;7.90;7.37;;;33.60;50.20;;;;;;4945909;29;20445;-51
2021/06/26 09:08:14;;;;;;;8.80;8.07;;;33.20;51.40;;;;;;4947421;28;20855;-51
2021/06/26 09:10:42;;;;;;;11.67;10.77;;;32.50;53.00;;;;;;4950184;28;20446;-51
2021/06/26 09:13:18;;;;;;;10.70;9.90;;;32.10;54.40;;;;;;4948819;28;20463;-52
2021/06/26 09:15:45;;;;;;;9.83;9.03;;;31.70;55.00;;;;;;4945391;28;20877;-52
2021/06/26 09:18:14;;;;;;;9.27;8.57;;;33.10;53.30;;;;;;4949467;28;20826;-52
2021/06/26 09:20:42;;;;;;;8.27;7.67;;;33.30;52.00;;;;;;4948164;28;20436;-52
2021/06/26 09:23:28;;;;;;;8.20;7.67;;;33.20;51.30;;;;;;4952167;28;20443;-51
2021/06/26 09:26:04;;;;;;;8.77;8.07;;;32.10;51.60;;;;;;4943921;28;20971;-52
2021/06/26 09:28:30;;;;;;;8.47;7.87;;;30.40;54.90;;;;;;4943735;28;20834;-51
2021/06/26 09:30:56;;;;;;;9.50;8.60;;;30.80;57.00;;;;;;4953810;28;20447;-51
2021/06/26 09:33:25;;;;;;;9.90;9.20;;;31.40;56.30;;;;;;4954382;28;20303;-52
2021/06/26 09:36:11;;;;;;;8.60;7.90;;;32.00;55.20;;;;;;4951099;28;20189;-52
2021/06/26 09:38:55;;;;;;;8.60;7.90;;;31.10;55.50;;;;;;4953244;28;20460;-52
2021/06/26 09:41:20;;;;;;;7.17;6.67;;;32.70;53.70;;;;;;4952817;28;20912;-52
2021/06/26 09:43:46;;;;;;;6.90;6.40;;;33.30;51.60;;;;;;4952089;28;20439;-52
2021/06/26 09:46:13;;;;;;;7.33;6.83;;;33.40;50.00;;;;;;4948691;28;20720;-52
2021/06/26 09:48:59;;;;;;;7.03;6.53;;;33.60;49.90;;;;;;4949400;28;20205;-52
2021/06/26 09:51:30;;;;;;;6.10;5.70;;;34.50;47.50;;;;;;4953807;28;20445;-52
2021/06/26 09:53:59;;;;;;;8.07;7.47;;;34.90;47.10;;;;;;4951864;28;20508;-52
2021/06/26 09:56:37;;;;;;;8.90;8.30;;;34.80;47.00;;;;;;4950187;28;20435;-52
2021/06/26 09:59:03;;;;;;;9.00;8.30;;;35.50;48.00;;;;;;4952605;28;20459;-52
2021/06/26 10:01:31;;;;;;;8.17;7.67;;;33.90;49.20;;;;;;4950617;28;20451;-52
2021/06/26 10:03:58;;;;;;;9.10;8.40;;;35.10;49.50;;;;;;4948539;28;20439;-52
2021/06/26 10:06:24;;;;;;;8.67;7.90;;;34.10;48.90;;;;;;4945488;28;20437;-52
2021/06/26 10:08:50;;;;;;;7.10;6.60;;;35.50;48.90;;;;;;4968783;28;20498;-52
2021/06/26 10:11:16;;;;;;;6.97;6.47;;;35.80;45.70;;;;;;4944636;28;20880;-53
2021/06/26 10:13:43;;;;;;;7.23;6.73;;;36.50;45.00;;;;;;4946645;28;20476;-52
2021/06/26 10:16:09;;;;;;;7.07;6.57;;;37.30;44.20;;;;;;4945865;28;20607;-52
2021/06/26 10:18:35;;;;;;;7.50;6.90;;;36.90;43.60;;;;;;4944802;28;20487;-52
2021/06/26 10:21:02;;;;;;;7.93;7.23;;;35.60;44.40;;;;;;4945240;28;20856;-52
2021/06/26 10:23:33;;;;;;;7.30;6.80;;;35.20;46.10;;;;;;4950053;28;20464;-52
2021/06/26 10:26:00;;;;;;;7.57;7.07;;;34.30;47.30;;;;;;4948965;28;20460;-52
2021/06/26 10:28:25;;;;;;;7.77;7.17;;;33.20;49.40;;;;;;4948805;28;20471;-51
2021/06/26 10:31:06;;;;;;;7.90;7.20;;;32.10;50.40;;;;;;4941632;28;20808;-52
2021/06/26 10:33:32;;;;;;;7.80;7.27;;;31.80;52.80;;;;;;4944394;28;20214;-52
2021/06/26 10:36:00;;;;;;;6.67;6.17;;;32.60;51.00;;;;;;4952785;28;20436;-52
2021/06/26 10:38:38;;;;;;;7.23;6.73;;;33.80;48.80;;;;;;4938519;28;20944;-52
2021/06/26 10:41:15;;;;;;;6.97;6.47;;;34.40;47.80;;;;;;4953070;28;20969;-52
2021/06/26 10:43:41;;;;;;;7.50;7.00;;;34.40;46.70;;;;;;4961472;28;20436;-52
2021/06/26 10:46:12;;;;;;;8.30;7.53;;;32.70;49.50;;;;;;4943341;28;20934;-52
2021/06/26 10:48:40;;;;;;;7.90;7.30;;;34.00;49.30;;;;;;4945391;28;20274;-52
2021/06/26 10:51:06;;;;;;;6.77;6.30;;;35.10;47.80;;;;;;4952643;28;20447;-52
2021/06/26 10:53:40;;;;;;;6.50;6.00;;;35.40;46.80;;;;;;4947773;28;20463;-52
2021/06/26 10:56:14;;;;;;;7.13;6.63;;;33.60;47.90;;;;;;4942672;28;20435;-51
2021/06/26 10:58:44;;;;;;;7.17;6.60;;;31.40;51.80;;;;;;4940187;28;21016;-51
2021/06/26 11:01:18;;;;;;;6.40;6.00;;;30.30;53.40;;;;;;4967818;28;20511;-51
2021/06/26 11:03:45;;;;;;;6.07;5.67;;;30.20;54.60;;;;;;4945151;28;20445;-52
2021/06/26 11:06:18;;;;;;;6.47;6.07;;;31.40;53.00;;;;;;4948433;29;20439;-53
2021/06/26 11:08:57;;;;;;;6.00;5.60;;;32.40;51.40;;;;;;4948305;28;20574;-52
2021/06/26 11:11:30;;;;;;;6.47;5.97;;;32.70;50.50;;;;;;4943153;28;20857;-51
2021/06/26 11:14:10;;;;;;;6.00;5.53;;;33.30;48.80;;;;;;4948383;28;20474;-52
2021/06/26 11:16:37;;;;;;;5.70;5.10;;;31.70;49.10;;;;;;4945782;28;20885;-51
2021/06/26 11:19:03;;;;;;;6.37;5.97;;;32.80;49.80;;;;;;4948907;28;20476;-52
2021/06/26 11:21:36;;;;;;;6.20;5.63;;;33.20;48.10;;;;;;4948393;28;20476;-52
2021/06/26 11:24:01;;;;;;;6.90;6.17;;;32.80;49.20;;;;;;4943212;28;21038;-51
2021/06/26 11:26:27;;;;;;;7.60;7.00;;;32.00;50.70;;;;;;4939936;28;20445;-52
2021/06/26 11:28:53;;;;;;;8.63;8.03;;;31.70;52.20;;;;;;4949436;28;20267;-51
2021/06/26 11:31:18;;;;;;;8.00;7.40;;;31.30;53.80;;;;;;4949169;28;20181;-52
2021/06/26 11:33:44;;;;;;;7.90;7.20;;;30.80;54.60;;;;;;4951903;28;20222;-52
2021/06/26 11:36:12;;;;;;;7.80;7.30;;;31.00;54.30;;;;;;4947108;28;20188;-52
2021/06/26 11:38:37;;;;;;;7.70;7.10;;;30.70;54.40;;;;;;4950256;28;20203;-52
2021/06/26 11:41:09;;;;;;;6.90;6.40;;;30.10;56.10;;;;;;4950590;29;20432;-52
2021/06/26 11:43:35;;;;;;;6.20;5.80;;;30.30;55.50;;;;;;4976599;28;20202;-51
2021/06/26 11:46:01;;;;;;;6.60;6.10;;;30.20;54.60;;;;;;4960923;28;20471;-51
2021/06/26 11:48:27;;;;;;;6.60;6.17;;;30.00;55.50;;;;;;4951811;28;20501;-51
2021/06/26 11:51:01;;;;;;;6.87;6.37;;;29.80;55.90;;;;;;4953579;28;20983;-51
2021/06/26 11:53:27;;;;;;;6.53;6.03;;;29.30;56.60;;;;;;4950733;29;20474;-51
2021/06/26 11:55:59;;;;;;;7.77;7.17;;;29.00;57.20;;;;;;4945300;28;20494;-51
2021/06/26 11:58:50;;;;;;;7.57;7.00;;;28.60;59.00;;;;;;4948372;28;20462;-51
2021/06/26 12:01:32;;;;;;;6.40;5.90;;;28.50;59.00;;;;;;4944137;28;21154;-51
2021/06/26 12:04:00;;;;;;;6.50;6.00;;;28.50;58.80;;;;;;4956515;28;20920;-51
2021/06/26 12:06:30;;;;;;;6.50;6.00;;;28.40;59.00;;;;;;4952410;28;20450;-51
2021/06/26 12:08:57;;;;;;;6.10;5.70;;;28.20;59.20;;;;;;4953363;28;20461;-51
2021/06/26 12:11:28;;;;;;;6.27;5.87;;;28.20;59.50;;;;;;4948954;28;20451;-50
2021/06/26 12:13:59;;;;;;;6.23;5.83;;;28.00;59.70;;;;;;4954980;28;20491;-50
2021/06/26 12:16:31;;;;;;;6.03;5.53;;;27.90;61.40;;;;;;4948109;29;20436;-51
2021/06/26 12:18:59;;;;;;;6.70;5.97;;;27.90;61.10;;;;;;4948703;28;20471;-51
2021/06/26 12:21:38;;;;;;;6.20;5.73;;;27.90;60.50;;;;;;4947978;28;20438;-51
2021/06/26 12:24:04;;;;;;;6.53;6.03;;;28.10;60.00;;;;;;4953764;28;20965;-51
2021/06/26 12:26:29;;;;;;;6.70;6.20;;;27.80;59.60;;;;;;4947659;28;20427;-51
2021/06/26 12:28:55;;;;;;;6.57;6.07;;;27.90;60.50;;;;;;4944588;29;20844;-51
2021/06/26 12:31:22;;;;;;;6.27;5.77;;;27.80;61.00;;;;;;4948208;28;20212;-51
2021/06/26 12:34:17;;;;;;;6.07;5.67;;;27.80;60.00;;;;;;4951268;28;20212;-51
2021/06/26 12:36:59;;;;;;;6.53;6.03;;;27.60;59.80;;;;;;4935401;28;20791;-51
2021/06/26 12:39:35;;;;;;;5.97;5.37;;;27.30;60.70;;;;;;4951715;28;21199;-51